Time;durP1;ratioP1;P1;durP2;ratioP2;P2;SDS_P1;SDS_P2;PMS_P1;PMS_P2;Temp;Humidity;BMP_temperature;BMP_pressure;BME280_temperature;BME280_humidity;BME280_pressure;Samples;Min_cycle;Max_cycle;Signal;HPM_P1;HPM_P2
2021/01/18 00:02:04;;;;;;;15.13;13.30;;;2.40;99.90;;;;;;5047337;28;20985;-93
2021/01/18 00:04:31;;;;;;;12.43;11.33;;;2.40;99.90;;;;;;5041214;28;21089;-93
2021/01/18 00:06:58;;;;;;;13.00;11.70;;;2.40;99.90;;;;;;5047991;28;20645;-92
2021/01/18 00:09:24;;;;;;;14.73;11.03;;;3.00;99.90;;;;;;5043125;28;21075;-93
2021/01/18 00:11:51;;;;;;;12.50;10.67;;;2.50;99.90;;;;;;5039814;28;20683;-93
2021/01/18 00:14:19;;;;;;;12.53;11.10;;;2.50;99.90;;;;;;5028824;28;20630;-93
2021/01/18 00:16:47;;;;;;;13.17;11.97;;;2.60;99.90;;;;;;5034779;28;20656;-93
2021/01/18 00:19:14;;;;;;;12.20;10.57;;;2.60;99.90;;;;;;5058431;28;20743;-93
2021/01/18 00:21:45;;;;;;;14.40;11.33;;;2.60;99.90;;;;;;5041563;28;21183;-94
2021/01/18 00:24:12;;;;;;;13.17;11.80;;;2.60;99.90;;;;;;5039871;28;20648;-92
2021/01/18 00:26:39;;;;;;;16.53;14.80;;;2.60;99.90;;;;;;5041296;28;20640;-94
2021/01/18 00:29:05;;;;;;;15.33;12.47;;;2.60;99.90;;;;;;5039685;28;20653;-93
2021/01/18 00:31:32;;;;;;;13.27;12.10;;;2.50;99.90;;;;;;5042903;28;21101;-92
2021/01/18 00:33:59;;;;;;;14.57;12.90;;;2.60;99.90;;;;;;5040294;28;20631;-93
2021/01/18 00:36:26;;;;;;;15.03;13.47;;;2.60;99.90;;;;;;5040551;28;20994;-91
2021/01/18 00:38:52;;;;;;;13.93;12.50;;;2.70;99.90;;;;;;5041146;28;20672;-92
2021/01/18 00:41:19;;;;;;;13.60;12.20;;;2.60;99.90;;;;;;5041728;28;20699;-91
2021/01/18 00:43:45;;;;;;;14.10;12.70;;;2.60;99.90;;;;;;5043015;28;20696;-91
2021/01/18 00:46:12;;;;;;;11.73;10.50;;;2.60;99.90;;;;;;5045079;28;20649;-94
2021/01/18 00:48:39;;;;;;;14.20;12.40;;;2.60;99.90;;;;;;5049885;28;20966;-95
2021/01/18 00:51:05;;;;;;;11.70;10.60;;;2.70;99.90;;;;;;5039155;28;20681;-94
2021/01/18 00:53:32;;;;;;;11.80;10.00;;;2.60;99.90;;;;;;5048621;28;20891;-93
2021/01/18 00:55:58;;;;;;;9.63;8.73;;;2.60;99.90;;;;;;5031520;28;20637;-93
2021/01/18 00:58:25;;;;;;;9.97;9.00;;;2.50;99.90;;;;;;5047150;28;20704;-94
2021/01/18 01:00:52;;;;;;;9.70;8.37;;;2.50;99.90;;;;;;5030150;28;20665;-93
2021/01/18 01:03:18;;;;;;;9.40;8.60;;;2.80;99.90;;;;;;5028197;28;20637;-94
2021/01/18 01:05:47;;;;;;;11.70;8.80;;;2.40;99.90;;;;;;5028214;28;20642;-93
2021/01/18 01:08:14;;;;;;;9.20;8.30;;;2.50;99.90;;;;;;5047337;28;20655;-94
2021/01/18 01:10:41;;;;;;;9.87;8.87;;;2.50;99.90;;;;;;5043245;28;20680;-92
2021/01/18 01:13:09;;;;;;;10.73;9.60;;;2.50;99.90;;;;;;5045097;28;20650;-93
2021/01/18 01:15:37;;;;;;;11.80;9.40;;;2.40;99.90;;;;;;5047809;28;20712;-93
2021/01/18 01:18:04;;;;;;;9.50;8.50;;;2.60;99.90;;;;;;5041689;28;20637;-93
2021/01/18 01:20:30;;;;;;;10.10;9.20;;;2.60;99.90;;;;;;5045733;28;20753;-93
2021/01/18 01:22:57;;;;;;;9.70;8.37;;;2.60;99.90;;;;;;5039522;28;21635;-93
2021/01/18 01:25:25;;;;;;;9.50;8.60;;;2.60;99.90;;;;;;5043565;28;20649;-93
2021/01/18 01:27:52;;;;;;;10.30;7.27;;;2.50;99.90;;;;;;5043828;28;21210;-93
2021/01/18 01:30:20;;;;;;;8.13;7.40;;;2.50;99.90;;;;;;5049736;28;20744;-92
2021/01/18 01:32:49;;;;;;;7.90;7.00;;;2.40;99.90;;;;;;5042734;28;20666;-92
2021/01/18 01:35:17;;;;;;;8.40;7.47;;;2.30;99.90;;;;;;5046389;28;20642;-92
2021/01/18 01:37:44;;;;;;;8.50;7.70;;;2.40;99.90;;;;;;5044320;28;20683;-91
2021/01/18 01:40:14;;;;;;;8.23;7.23;;;2.50;99.90;;;;;;5050495;28;21057;-91
2021/01/18 01:42:40;;;;;;;8.30;7.50;;;2.50;99.90;;;;;;5044719;28;21200;-92
2021/01/18 01:45:09;;;;;;;9.93;8.97;;;2.80;99.90;;;;;;5045714;28;20655;-94
2021/01/18 01:47:39;;;;;;;9.07;7.63;;;2.80;99.90;;;;;;5052915;28;20630;-94
2021/01/18 01:50:10;;;;;;;7.80;7.13;;;2.70;99.90;;;;;;5063271;28;20672;-94
2021/01/18 01:52:41;;;;;;;8.83;7.93;;;2.60;99.90;;;;;;5062051;28;20808;-95
2021/01/18 01:55:15;;;;;;;8.50;7.73;;;2.60;99.90;;;;;;5043351;28;20746;-95
2021/01/18 01:57:41;;;;;;;10.30;9.20;;;2.50;99.90;;;;;;5042151;28;20709;-95
2021/01/18 02:00:08;;;;;;;8.00;7.20;;;2.60;99.90;;;;;;5047493;28;20695;-94
2021/01/18 02:02:36;;;;;;;9.50;8.57;;;2.60;99.90;;;;;;5049758;28;20630;-95
2021/01/18 02:05:14;;;;;;;8.83;8.00;;;2.90;99.90;;;;;;5044520;28;20644;-94
2021/01/18 02:07:42;;;;;;;8.53;7.63;;;2.60;99.90;;;;;;5048034;28;20637;-95
2021/01/18 02:10:10;;;;;;;9.23;8.27;;;2.60;99.90;;;;;;5048155;28;20669;-94
2021/01/18 02:12:38;;;;;;;9.07;8.17;;;2.70;99.90;;;;;;5041381;28;20663;-94
2021/01/18 02:15:17;;;;;;;8.37;7.57;;;3.20;99.90;;;;;;5046593;28;20948;-94
2021/01/18 02:17:58;;;;;;;9.50;7.43;;;2.70;99.90;;;;;;5042964;28;20828;-93
2021/01/18 02:20:58;;;;;;;9.00;8.20;;;2.80;99.90;;;;;;5044085;28;20673;-93
2021/01/18 02:23:37;;;;;;;9.20;8.30;;;2.80;99.90;;;;;;5014435;28;20635;-92
2021/01/18 02:26:07;;;;;;;9.17;8.27;;;2.80;99.90;;;;;;5042351;28;21200;-93
2021/01/18 02:29:03;;;;;;;8.00;7.20;;;2.70;99.90;;;;;;5044293;28;20643;-93
2021/01/18 02:31:52;;;;;;;8.07;7.20;;;2.70;99.90;;;;;;5017076;28;20736;-94
2021/01/18 02:34:48;;;;;;;8.47;7.73;;;2.60;99.90;;;;;;5028530;28;21019;-94
2021/01/18 02:37:42;;;;;;;9.20;8.30;;;2.60;99.90;;;;;;5034302;28;20677;-95
2021/01/18 02:40:13;;;;;;;9.40;8.17;;;2.70;99.90;;;;;;5023532;28;21063;-93
2021/01/18 02:42:44;;;;;;;10.07;9.27;;;2.80;99.90;;;;;;5039391;28;20636;-94
2021/01/18 02:45:12;;;;;;;9.20;8.37;;;2.70;99.90;;;;;;5029709;28;20640;-94
2021/01/18 02:47:41;;;;;;;7.50;6.80;;;3.10;99.90;;;;;;5024545;28;21093;-94
2021/01/18 02:50:09;;;;;;;8.27;7.57;;;2.60;99.90;;;;;;5043923;28;21246;-94
2021/01/18 02:52:41;;;;;;;9.20;7.70;;;2.60;99.90;;;;;;5044873;28;20688;-93
2021/01/18 02:55:10;;;;;;;8.90;8.00;;;2.50;99.90;;;;;;5046874;28;20711;-94
2021/01/18 02:57:40;;;;;;;8.10;7.30;;;2.60;99.90;;;;;;5049623;28;20645;-95
2021/01/18 03:00:11;;;;;;;7.80;6.97;;;3.20;99.90;;;;;;5028031;28;20674;-95
2021/01/18 03:02:46;;;;;;;7.73;7.03;;;2.70;99.90;;;;;;5044891;28;21181;-95
2021/01/18 03:05:20;;;;;;;6.97;6.27;;;2.70;99.90;;;;;;5045730;28;20656;-91
2021/01/18 03:07:59;;;;;;;7.00;6.40;;;2.60;99.90;;;;;;5042614;28;20738;-91
2021/01/18 03:10:32;;;;;;;8.37;6.70;;;2.70;99.90;;;;;;5044986;28;20693;-91
2021/01/18 03:13:02;;;;;;;8.67;7.67;;;2.80;99.90;;;;;;5042475;28;20677;-91
2021/01/18 03:15:35;;;;;;;7.10;6.40;;;2.70;99.90;;;;;;5043597;28;20642;-92
2021/01/18 03:18:03;;;;;;;10.80;6.60;;;2.80;99.90;;;;;;5039340;28;21182;-92
2021/01/18 03:20:30;;;;;;;10.93;7.40;;;2.80;99.90;;;;;;5042933;28;20673;-92
2021/01/18 03:23:03;;;;;;;7.47;6.77;;;2.90;99.90;;;;;;5037511;28;21070;-92
2021/01/18 03:25:29;;;;;;;7.40;6.80;;;2.90;99.90;;;;;;5040650;28;20680;-92
2021/01/18 03:27:57;;;;;;;7.70;6.90;;;2.80;99.90;;;;;;5041128;28;20695;-93
2021/01/18 03:30:25;;;;;;;7.07;6.40;;;2.80;99.90;;;;;;5027765;28;20666;-93
2021/01/18 03:32:53;;;;;;;5.93;5.33;;;2.90;99.90;;;;;;5040931;28;20671;-94
2021/01/18 03:35:20;;;;;;;6.03;5.53;;;3.00;99.90;;;;;;5044938;28;20658;-91
2021/01/18 03:37:52;;;;;;;6.83;6.13;;;3.10;99.90;;;;;;5039952;28;20654;-92
2021/01/18 03:40:20;;;;;;;7.40;5.97;;;3.10;99.90;;;;;;5037604;28;20657;-91
2021/01/18 03:42:53;;;;;;;7.77;7.17;;;3.20;99.90;;;;;;5039340;28;20637;-92
2021/01/18 03:45:19;;;;;;;8.03;6.10;;;3.20;99.90;;;;;;5021457;28;20654;-92
2021/01/18 03:47:45;;;;;;;7.20;6.50;;;3.30;99.90;;;;;;5043748;28;20685;-93
2021/01/18 03:50:12;;;;;;;7.67;6.87;;;3.40;99.90;;;;;;5043682;28;20648;-92
2021/01/18 03:52:38;;;;;;;8.93;7.90;;;3.40;99.90;;;;;;5036188;28;21023;-92
2021/01/18 03:55:06;;;;;;;7.50;6.80;;;3.40;99.90;;;;;;5036035;28;20637;-94
2021/01/18 03:57:33;;;;;;;7.00;6.40;;;3.40;99.90;;;;;;5044465;28;20672;-95
2021/01/18 03:59:59;;;;;;;9.93;7.77;;;3.30;99.90;;;;;;5041931;28;20626;-95
2021/01/18 04:02:29;;;;;;;9.13;6.87;;;3.40;99.90;;;;;;5045390;28;20647;-96
2021/01/18 04:04:55;;;;;;;11.47;7.87;;;4.30;99.90;;;;;;5044843;28;20633;-95
2021/01/18 04:07:22;;;;;;;9.00;8.00;;;3.90;99.90;;;;;;5041991;28;20772;-94
2021/01/18 04:09:48;;;;;;;10.73;7.07;;;3.30;99.90;;;;;;5041474;28;20646;-94
2021/01/18 04:12:14;;;;;;;7.83;7.00;;;3.30;99.90;;;;;;5039851;28;20672;-94
2021/01/18 04:14:43;;;;;;;8.03;6.70;;;3.30;99.90;;;;;;5035347;28;20652;-93
2021/01/18 04:17:09;;;;;;;8.33;7.60;;;3.10;99.90;;;;;;5033269;28;20668;-93
2021/01/18 04:19:36;;;;;;;9.80;6.63;;;3.30;99.90;;;;;;5040555;28;20702;-93
2021/01/18 04:22:05;;;;;;;8.63;7.67;;;3.20;99.90;;;;;;5036509;28;20650;-93
2021/01/18 04:24:32;;;;;;;8.00;7.30;;;3.10;99.90;;;;;;5038312;28;20645;-92
2021/01/18 04:26:59;;;;;;;7.13;6.43;;;3.10;99.90;;;;;;5039716;28;20673;-92
2021/01/18 04:29:25;;;;;;;8.17;7.37;;;3.10;99.90;;;;;;5040597;28;20653;-91
2021/01/18 04:31:53;;;;;;;9.77;7.43;;;3.50;99.90;;;;;;5037248;28;20679;-93
2021/01/18 04:34:19;;;;;;;8.00;7.20;;;3.20;99.90;;;;;;5037277;28;20701;-93
2021/01/18 04:36:46;;;;;;;9.50;7.53;;;3.10;99.90;;;;;;5041640;28;20705;-92
2021/01/18 04:39:13;;;;;;;8.63;7.73;;;3.20;99.90;;;;;;5023119;28;20630;-91
2021/01/18 04:41:42;;;;;;;9.00;8.10;;;3.30;99.90;;;;;;5041614;28;20976;-92
2021/01/18 04:44:11;;;;;;;7.50;6.80;;;3.30;99.90;;;;;;5040884;28;20618;-93
2021/01/18 04:46:40;;;;;;;9.27;8.00;;;3.30;99.90;;;;;;5039680;28;20681;-94
2021/01/18 04:49:08;;;;;;;11.93;8.00;;;3.20;99.90;;;;;;5044546;28;20642;-94
2021/01/18 04:51:41;;;;;;;8.47;7.40;;;3.90;99.90;;;;;;5042908;28;20713;-94
2021/01/18 04:54:14;;;;;;;8.23;6.80;;;3.30;99.90;;;;;;5042084;28;20618;-93
2021/01/18 04:57:07;;;;;;;8.20;6.83;;;3.40;99.90;;;;;;5039284;28;20655;-94
2021/01/18 04:59:40;;;;;;;8.33;7.47;;;3.50;99.90;;;;;;5035753;28;20639;-91
2021/01/18 05:02:09;;;;;;;9.60;8.10;;;3.50;99.90;;;;;;5022934;28;20733;-92
2021/01/18 05:04:41;;;;;;;8.70;7.90;;;3.50;99.90;;;;;;5036506;28;20634;-93
2021/01/18 05:07:39;;;;;;;7.33;6.50;;;3.50;99.90;;;;;;5024677;28;20657;-92
2021/01/18 05:10:08;;;;;;;10.27;7.63;;;3.50;99.90;;;;;;5035651;28;20707;-93
2021/01/18 05:12:37;;;;;;;8.67;7.70;;;3.40;99.90;;;;;;5037938;28;20671;-94
2021/01/18 05:15:05;;;;;;;12.60;8.90;;;3.40;99.90;;;;;;5042559;28;20664;-94
2021/01/18 05:17:42;;;;;;;11.23;7.03;;;3.40;99.90;;;;;;5041954;28;21330;-93
2021/01/18 05:20:12;;;;;;;9.53;7.70;;;3.40;99.90;;;;;;5040395;28;20645;-91
2021/01/18 05:22:41;;;;;;;11.00;7.60;;;3.50;99.90;;;;;;5039006;28;20652;-91
2021/01/18 05:25:08;;;;;;;10.20;7.33;;;3.50;99.90;;;;;;5039286;28;20712;-92
2021/01/18 05:27:55;;;;;;;9.43;8.00;;;3.50;99.90;;;;;;5037398;28;20685;-91
2021/01/18 05:30:22;;;;;;;10.23;9.13;;;3.50;99.90;;;;;;5042103;28;20740;-91
2021/01/18 05:33:01;;;;;;;9.90;8.37;;;3.50;99.90;;;;;;5041256;28;20693;-91
2021/01/18 05:35:28;;;;;;;12.23;11.10;;;3.50;99.90;;;;;;5044814;28;20731;-91
2021/01/18 05:38:06;;;;;;;14.80;9.63;;;3.40;99.90;;;;;;5042003;28;20769;-92
2021/01/18 05:40:38;;;;;;;11.00;9.67;;;3.30;99.90;;;;;;5045499;28;20660;-91
2021/01/18 05:43:04;;;;;;;10.63;9.57;;;3.20;99.90;;;;;;5022351;28;20675;-91
2021/01/18 05:45:32;;;;;;;12.60;11.30;;;3.10;99.90;;;;;;5047197;28;20626;-92
2021/01/18 05:48:01;;;;;;;14.43;12.93;;;3.20;99.90;;;;;;5045849;28;20729;-93
2021/01/18 05:50:29;;;;;;;9.90;8.90;;;3.00;99.90;;;;;;5043416;28;20648;-93
2021/01/18 05:52:56;;;;;;;11.33;9.03;;;3.00;99.90;;;;;;5044701;28;20676;-93
2021/01/18 05:55:25;;;;;;;10.33;9.00;;;3.00;99.90;;;;;;5047039;28;20736;-93
2021/01/18 05:57:56;;;;;;;12.07;7.40;;;3.00;99.90;;;;;;5041913;28;20670;-93
2021/01/18 06:00:30;;;;;;;11.07;8.13;;;2.90;99.90;;;;;;5046171;28;20644;-92
2021/01/18 06:02:57;;;;;;;10.83;8.90;;;2.90;99.90;;;;;;5038209;28;20908;-90
2021/01/18 06:05:26;;;;;;;11.00;9.00;;;3.00;99.90;;;;;;5041448;28;20638;-91
2021/01/18 06:07:55;;;;;;;9.23;7.73;;;2.90;99.90;;;;;;5040502;28;20675;-91
2021/01/18 06:10:33;;;;;;;8.50;7.63;;;2.90;99.90;;;;;;5040716;28;21541;-91
2021/01/18 06:13:00;;;;;;;11.20;8.43;;;3.00;99.90;;;;;;5039151;28;21217;-91
2021/01/18 06:15:26;;;;;;;9.10;7.27;;;2.90;99.90;;;;;;5039350;28;20626;-91
2021/01/18 06:17:56;;;;;;;9.03;6.30;;;3.00;99.90;;;;;;5039893;28;20687;-90
2021/01/18 06:20:28;;;;;;;8.60;7.33;;;3.10;99.90;;;;;;5044213;28;20701;-94
2021/01/18 06:23:00;;;;;;;8.70;7.80;;;3.30;99.90;;;;;;5023435;28;20667;-93
2021/01/18 06:25:34;;;;;;;11.13;7.07;;;3.20;99.90;;;;;;5043427;28;20641;-93
2021/01/18 06:28:02;;;;;;;8.17;6.83;;;3.20;99.90;;;;;;5045359;28;20665;-95
2021/01/18 06:30:32;;;;;;;9.67;7.30;;;3.20;99.90;;;;;;5044958;28;20665;-94
2021/01/18 06:33:11;;;;;;;8.03;6.57;;;3.30;99.90;;;;;;5039896;28;20682;-95
2021/01/18 06:35:40;;;;;;;8.20;7.40;;;3.40;99.90;;;;;;5041056;28;21227;-96
2021/01/18 06:38:10;;;;;;;9.70;6.40;;;3.60;99.90;;;;;;5052501;28;20675;-95
2021/01/18 06:40:41;;;;;;;9.53;7.00;;;3.40;99.90;;;;;;5029057;28;20646;-95
2021/01/18 06:43:08;;;;;;;6.80;6.10;;;3.30;99.90;;;;;;5042427;28;20642;-95
2021/01/18 06:45:37;;;;;;;6.40;5.80;;;3.30;99.90;;;;;;5047470;28;20654;-94
2021/01/18 06:48:07;;;;;;;7.70;7.00;;;3.20;99.90;;;;;;5030614;28;20665;-95
2021/01/18 06:50:36;;;;;;;12.63;7.03;;;3.30;99.90;;;;;;5024653;28;20650;-94
2021/01/18 06:53:25;;;;;;;10.73;7.37;;;3.30;99.90;;;;;;5047987;28;20673;-95
2021/01/18 06:56:15;;;;;;;6.63;5.87;;;3.50;99.90;;;;;;5021692;28;20740;-94
2021/01/18 06:58:52;;;;;;;9.00;6.57;;;3.30;99.90;;;;;;5046986;28;20647;-95
2021/01/18 07:01:28;;;;;;;8.00;7.20;;;3.30;99.90;;;;;;5040729;28;20709;-94
2021/01/18 07:04:03;;;;;;;7.67;6.00;;;3.20;99.90;;;;;;5042978;28;20656;-93
2021/01/18 07:06:32;;;;;;;9.10;6.57;;;3.20;99.90;;;;;;5040199;28;21031;-95
2021/01/18 07:09:03;;;;;;;8.40;7.70;;;3.60;99.90;;;;;;5041582;28;20652;-94
2021/01/18 07:11:29;;;;;;;12.83;8.33;;;3.00;99.90;;;;;;5028657;28;20672;-94
2021/01/18 07:13:57;;;;;;;9.17;7.30;;;3.10;99.90;;;;;;5046610;28;20637;-93
2021/01/18 07:16:25;;;;;;;7.20;6.50;;;3.00;99.90;;;;;;5041050;28;20635;-90
2021/01/18 07:18:53;;;;;;;6.70;6.00;;;3.10;99.90;;;;;;5039017;28;20661;-92
2021/01/18 07:21:20;;;;;;;10.43;6.93;;;3.10;99.90;;;;;;5039575;28;20657;-91
2021/01/18 07:23:57;;;;;;;9.07;7.10;;;3.20;99.90;;;;;;5040646;28;20632;-92
2021/01/18 07:26:55;;;;;;;8.00;6.50;;;3.20;99.90;;;;;;5037151;28;20700;-92
2021/01/18 07:29:23;;;;;;;13.83;7.07;;;3.20;99.90;;;;;;5040436;28;20653;-92
2021/01/18 07:31:52;;;;;;;11.40;6.47;;;3.20;99.90;;;;;;5036870;28;20676;-91
2021/01/18 07:34:21;;;;;;;9.73;7.20;;;3.20;99.90;;;;;;5043006;28;20660;-92
2021/01/18 07:36:48;;;;;;;9.07;6.37;;;3.10;99.90;;;;;;5034921;28;21028;-92
2021/01/18 07:39:40;;;;;;;9.80;7.00;;;3.20;99.90;;;;;;5040302;28;20616;-93
2021/01/18 07:42:37;;;;;;;10.50;7.93;;;3.20;99.90;;;;;;5009390;28;20642;-92
2021/01/18 07:45:13;;;;;;;10.20;8.00;;;3.20;99.90;;;;;;5038806;28;20638;-92
2021/01/18 07:48:05;;;;;;;10.23;8.60;;;3.20;99.90;;;;;;5037620;28;20679;-92
2021/01/18 07:50:34;;;;;;;11.13;10.03;;;3.20;99.90;;;;;;5013614;28;20734;-92
2021/01/18 07:53:01;;;;;;;12.20;9.23;;;3.30;99.90;;;;;;5040233;28;20680;-92
2021/01/18 07:55:29;;;;;;;11.20;10.17;;;3.30;99.90;;;;;;5043027;28;20858;-93
2021/01/18 07:57:55;;;;;;;10.93;7.97;;;3.30;99.90;;;;;;5038834;28;20687;-93
2021/01/18 08:00:28;;;;;;;12.20;8.70;;;3.30;99.90;;;;;;5022001;28;20664;-94
2021/01/18 08:03:26;;;;;;;19.77;11.37;;;3.30;99.90;;;;;;5042195;28;20645;-92
2021/01/18 08:06:04;;;;;;;14.13;8.73;;;3.20;99.90;;;;;;5038545;28;21082;-94
2021/01/18 08:08:31;;;;;;;12.97;10.27;;;3.20;99.90;;;;;;5046342;28;20672;-92
2021/01/18 08:11:20;;;;;;;13.80;8.27;;;3.20;99.90;;;;;;5105268;27;20784;-94
2021/01/18 08:14:00;;;;;;;10.87;8.80;;;3.30;99.90;;;;;;5099227;28;20624;-92
2021/01/18 08:16:39;;;;;;;13.20;8.40;;;3.70;99.90;;;;;;5093434;28;20720;-93
2021/01/18 08:19:09;;;;;;;13.03;7.30;;;3.20;99.90;;;;;;5096974;28;20663;-95
2021/01/18 08:22:06;;;;;;;10.40;7.43;;;3.10;99.90;;;;;;5100577;28;20629;-94
2021/01/18 08:24:51;;;;;;;11.87;7.60;;;3.30;99.90;;;;;;5112086;28;20647;-93
2021/01/18 08:27:55;;;;;;;13.80;7.07;;;3.30;99.90;;;;;;5096651;28;20641;-93
2021/01/18 08:30:31;;;;;;;8.00;6.13;;;3.30;99.90;;;;;;5084659;28;20676;-93
2021/01/18 08:32:58;;;;;;;10.47;6.40;;;3.40;99.90;;;;;;5093415;28;20635;-93
2021/01/18 08:35:33;;;;;;;9.87;6.30;;;3.30;99.90;;;;;;5089384;28;20741;-92
2021/01/18 08:38:04;;;;;;;6.60;5.90;;;3.40;99.90;;;;;;5090049;28;20655;-92
2021/01/18 08:40:37;;;;;;;7.23;6.47;;;3.40;99.90;;;;;;5098559;28;20670;-93
2021/01/18 08:43:18;;;;;;;7.87;6.97;;;3.50;99.90;;;;;;5097200;28;20628;-95
2021/01/18 08:45:46;;;;;;;6.67;5.97;;;3.50;99.90;;;;;;5093280;28;20749;-94
2021/01/18 08:48:14;;;;;;;13.13;7.57;;;3.50;99.90;;;;;;5100835;28;20636;-94
2021/01/18 08:50:46;;;;;;;10.87;7.30;;;3.50;99.90;;;;;;5123559;22;20657;-93
2021/01/18 08:53:30;;;;;;;13.13;8.10;;;3.30;99.90;;;;;;5102961;28;20697;-94
2021/01/18 08:56:00;;;;;;;21.50;16.23;;;3.40;99.90;;;;;;5113732;28;20635;-94
2021/01/18 08:58:44;;;;;;;14.37;11.33;;;3.50;99.90;;;;;;5114558;28;20624;-91
2021/01/18 09:01:14;;;;;;;16.17;11.70;;;3.60;99.90;;;;;;5106314;28;20672;-94
2021/01/18 09:03:42;;;;;;;8.17;5.87;;;4.20;99.90;;;;;;5114183;28;20631;-93
2021/01/18 09:06:09;;;;;;;7.90;5.30;;;3.70;99.90;;;;;;5123711;28;20715;-93
2021/01/18 09:08:38;;;;;;;7.00;6.20;;;3.70;99.90;;;;;;5121885;28;20624;-94
2021/01/18 09:11:14;;;;;;;10.93;7.10;;;3.70;99.90;;;;;;5120021;28;21136;-93
2021/01/18 09:13:41;;;;;;;17.37;11.50;;;3.80;99.90;;;;;;5122590;28;20638;-93
2021/01/18 09:16:09;;;;;;;10.13;6.40;;;3.90;99.90;;;;;;5126307;28;20645;-92
2021/01/18 09:18:37;;;;;;;9.00;6.43;;;3.70;99.90;;;;;;5124109;28;20640;-94
2021/01/18 09:21:07;;;;;;;11.63;9.27;;;4.10;99.90;;;;;;5110726;28;20672;-93
2021/01/18 09:23:35;;;;;;;12.83;10.87;;;3.70;99.90;;;;;;5105853;28;20758;-94
2021/01/18 09:26:11;;;;;;;11.13;9.40;;;4.20;99.90;;;;;;5107612;28;20707;-93
2021/01/18 09:28:59;;;;;;;6.03;5.40;;;3.70;99.90;;;;;;5103695;28;20642;-94
2021/01/18 09:31:30;;;;;;;7.53;6.47;;;4.40;99.90;;;;;;5106641;28;20640;-93
2021/01/18 09:34:11;;;;;;;9.33;5.60;;;4.00;99.90;;;;;;5106294;28;21229;-94
2021/01/18 09:36:40;;;;;;;6.00;5.17;;;4.80;99.90;;;;;;5105905;28;20628;-95
2021/01/18 09:39:06;;;;;;;5.37;4.97;;;4.10;99.90;;;;;;5098558;28;21170;-95
2021/01/18 09:41:34;;;;;;;9.93;6.40;;;4.00;99.90;;;;;;5092863;28;20626;-94
2021/01/18 09:44:08;;;;;;;8.63;6.03;;;4.50;99.90;;;;;;5092896;28;21055;-95
2021/01/18 09:46:37;;;;;;;9.57;5.17;;;4.10;99.90;;;;;;5091332;28;20818;-94
2021/01/18 09:49:05;;;;;;;8.33;6.47;;;4.00;99.90;;;;;;5088143;28;21177;-95
2021/01/18 09:51:33;;;;;;;7.00;5.87;;;4.00;99.90;;;;;;5092238;28;20653;-95
2021/01/18 09:54:02;;;;;;;10.10;5.63;;;4.10;99.90;;;;;;5089412;28;20633;-95
2021/01/18 09:56:34;;;;;;;8.50;6.60;;;4.50;99.90;;;;;;5091040;28;20624;-94
2021/01/18 09:59:14;;;;;;;8.27;5.57;;;4.30;99.90;;;;;;5087386;28;20643;-94
2021/01/18 10:01:45;;;;;;;5.40;4.20;;;4.40;99.90;;;;;;5088514;28;20687;-94
2021/01/18 10:04:22;;;;;;;8.10;4.37;;;4.50;99.90;;;;;;5090081;28;20674;-95
2021/01/18 10:07:02;;;;;;;7.60;4.57;;;4.70;99.90;;;;;;5090010;28;20643;-94
2021/01/18 10:09:31;;;;;;;11.00;4.63;;;4.70;99.90;;;;;;5086516;28;21043;-94
2021/01/18 10:12:01;;;;;;;6.70;4.53;;;4.60;99.90;;;;;;5095559;28;21021;-96
2021/01/18 10:17:30;;;;;;;5.47;4.97;;;4.80;99.90;;;;;;5092465;28;20620;-96
2021/01/18 10:20:28;;;;;;;8.50;5.07;;;4.70;99.90;;;;;;5097518;28;20663;-95
2021/01/18 10:23:17;;;;;;;8.77;5.17;;;4.70;99.90;;;;;;5095245;28;20636;-94
2021/01/18 10:25:47;;;;;;;7.40;4.73;;;4.90;99.90;;;;;;5094105;28;20667;-96
2021/01/18 10:28:32;;;;;;;5.90;5.23;;;4.80;99.90;;;;;;5092573;28;21058;-96
2021/01/18 10:31:02;;;;;;;5.47;4.97;;;4.70;99.90;;;;;;5094158;28;21222;-95
2021/01/18 10:33:29;;;;;;;5.57;4.40;;;4.70;99.90;;;;;;5089101;28;20620;-95
2021/01/18 10:35:58;;;;;;;7.07;4.97;;;4.60;99.90;;;;;;5093252;28;20654;-94
2021/01/18 10:38:29;;;;;;;5.90;4.33;;;4.70;99.90;;;;;;5089653;28;20708;-94
2021/01/18 10:41:05;;;;;;;7.17;4.77;;;4.60;99.90;;;;;;5096909;28;20667;-94
2021/01/18 10:43:37;;;;;;;7.50;5.47;;;5.00;99.90;;;;;;5092727;28;21064;-95
2021/01/18 10:46:15;;;;;;;14.40;6.57;;;4.70;99.90;;;;;;5099709;28;20739;-94
2021/01/18 10:48:43;;;;;;;9.17;5.50;;;4.80;99.90;;;;;;5094104;28;21141;-95
2021/01/18 10:51:12;;;;;;;10.57;5.23;;;4.90;99.90;;;;;;5096532;28;20678;-94
2021/01/18 10:53:43;;;;;;;4.03;3.63;;;5.10;99.90;;;;;;5097979;28;20655;-95
2021/01/18 10:56:20;;;;;;;8.47;4.20;;;5.20;99.90;;;;;;5096302;28;20711;-95
2021/01/18 10:58:57;;;;;;;5.60;3.77;;;5.00;99.90;;;;;;5096882;28;20647;-94
2021/01/18 11:01:30;;;;;;;4.40;4.00;;;5.20;99.90;;;;;;5097849;28;21165;-96
2021/01/18 11:04:05;;;;;;;4.17;3.40;;;5.30;99.90;;;;;;5097777;28;20640;-95
2021/01/18 11:06:46;;;;;;;5.30;4.00;;;5.30;99.90;;;;;;5096093;28;20625;-94
2021/01/18 11:09:30;;;;;;;3.70;3.20;;;5.70;99.90;;;;;;5098415;28;20681;-95
2021/01/18 11:12:12;;;;;;;3.70;3.40;;;5.80;99.90;;;;;;5109505;28;20624;-93
2021/01/18 11:14:41;;;;;;;8.20;4.17;;;5.40;99.90;;;;;;5105132;28;20689;-93
2021/01/18 11:17:09;;;;;;;4.47;3.37;;;5.40;99.90;;;;;;5099870;28;20974;-93
2021/01/18 11:19:38;;;;;;;6.70;4.37;;;5.40;99.90;;;;;;5098200;28;20663;-94
2021/01/18 11:22:07;;;;;;;4.67;3.40;;;5.60;99.90;;;;;;5087678;28;20829;-92
2021/01/18 11:24:34;;;;;;;5.90;3.83;;;6.10;99.90;;;;;;5087645;28;21147;-93
2021/01/18 11:27:07;;;;;;;3.60;3.30;;;5.60;99.90;;;;;;5089043;28;20735;-93
2021/01/18 11:29:43;;;;;;;5.80;3.73;;;5.50;99.90;;;;;;5091304;28;20671;-94
2021/01/18 11:32:13;;;;;;;3.60;3.30;;;5.50;99.90;;;;;;5094107;28;21185;-91
2021/01/18 11:34:42;;;;;;;4.57;4.07;;;5.80;99.90;;;;;;5094131;28;20666;-95
2021/01/18 11:37:11;;;;;;;5.50;3.70;;;5.60;99.90;;;;;;5104877;28;20644;-94
2021/01/18 11:39:44;;;;;;;6.67;4.73;;;5.60;99.90;;;;;;5105483;28;20687;-93
2021/01/18 11:42:11;;;;;;;3.30;3.10;;;5.70;99.90;;;;;;5105241;28;20672;-93
2021/01/18 11:44:37;;;;;;;6.80;3.50;;;5.60;99.90;;;;;;5102100;28;20763;-96
2021/01/18 11:47:04;;;;;;;3.63;3.03;;;6.20;99.90;;;;;;5098985;28;20636;-94
2021/01/18 11:49:32;;;;;;;5.57;3.60;;;5.80;99.90;;;;;;5100065;28;20706;-94
2021/01/18 11:52:00;;;;;;;3.47;3.17;;;5.60;99.90;;;;;;5094586;28;20668;-96
2021/01/18 11:54:40;;;;;;;5.13;3.73;;;5.70;99.90;;;;;;5102699;28;20692;-95
2021/01/18 11:57:09;;;;;;;5.50;4.30;;;5.80;99.90;;;;;;5102342;28;20666;-96
2021/01/18 11:59:44;;;;;;;6.67;4.97;;;5.90;99.90;;;;;;5107449;28;20666;-95
2021/01/18 12:02:19;;;;;;;6.33;4.27;;;5.90;99.90;;;;;;5104203;28;20738;-95
2021/01/18 12:04:51;;;;;;;5.07;4.57;;;5.70;99.90;;;;;;5102388;28;20707;-95
2021/01/18 12:07:19;;;;;;;5.07;4.40;;;5.80;99.90;;;;;;5099805;28;20708;-94
2021/01/18 12:09:46;;;;;;;5.50;4.70;;;5.80;99.90;;;;;;5096675;28;20672;-94
2021/01/18 12:12:14;;;;;;;6.87;4.80;;;5.70;99.90;;;;;;5096132;28;20672;-94
2021/01/18 12:14:47;;;;;;;8.43;3.70;;;6.20;99.90;;;;;;5094186;28;20711;-95
2021/01/18 12:17:13;;;;;;;6.30;4.57;;;6.30;99.90;;;;;;5092006;28;20650;-94
2021/01/18 12:19:42;;;;;;;4.80;4.27;;;5.90;99.90;;;;;;5088607;28;20628;-95
2021/01/18 12:22:16;;;;;;;9.80;4.77;;;5.90;99.90;;;;;;5094010;28;20751;-94
2021/01/18 12:24:46;;;;;;;4.63;4.20;;;6.00;99.90;;;;;;5089513;28;20738;-94
2021/01/18 12:27:14;;;;;;;5.37;4.63;;;6.20;99.90;;;;;;5089222;28;20632;-93
2021/01/18 12:29:44;;;;;;;4.90;4.17;;;6.20;99.90;;;;;;5087084;28;20662;-94
2021/01/18 12:32:15;;;;;;;7.57;4.30;;;6.40;99.90;;;;;;5088849;28;20752;-95
2021/01/18 12:34:41;;;;;;;4.97;4.47;;;5.90;99.90;;;;;;5088221;28;20643;-95
2021/01/18 12:37:21;;;;;;;8.70;6.50;;;6.50;99.90;;;;;;5084057;28;20640;-95
2021/01/18 12:39:50;;;;;;;6.03;4.27;;;5.80;99.90;;;;;;5088720;28;21299;-94
2021/01/18 12:42:17;;;;;;;4.70;4.10;;;5.90;99.90;;;;;;5082853;28;20664;-94
2021/01/18 12:44:43;;;;;;;7.60;6.23;;;6.00;99.90;;;;;;5091276;28;21182;-93
2021/01/18 12:47:11;;;;;;;8.27;4.50;;;5.90;99.90;;;;;;5094576;28;20635;-94
2021/01/18 12:49:38;;;;;;;6.93;4.77;;;6.20;99.90;;;;;;5100371;28;20703;-95
2021/01/18 12:52:05;;;;;;;5.63;4.23;;;5.80;99.90;;;;;;5100229;28;20702;-95
2021/01/18 12:54:36;;;;;;;4.93;3.80;;;6.00;99.90;;;;;;5089233;28;21116;-94
2021/01/18 12:57:04;;;;;;;6.30;4.93;;;5.80;99.90;;;;;;5091313;28;20716;-94
2021/01/18 12:59:30;;;;;;;5.40;3.70;;;5.70;99.90;;;;;;5093081;28;20731;-93
2021/01/18 13:01:59;;;;;;;4.53;3.93;;;5.80;99.90;;;;;;5094790;28;20886;-95
2021/01/18 13:04:25;;;;;;;4.73;4.00;;;5.80;99.90;;;;;;5095005;28;20640;-94
2021/01/18 13:06:52;;;;;;;6.03;3.13;;;5.90;99.90;;;;;;5093051;28;20628;-95
2021/01/18 13:09:20;;;;;;;3.80;3.20;;;5.90;99.90;;;;;;5093004;28;20619;-94
2021/01/18 13:11:51;;;;;;;5.17;4.00;;;5.90;99.90;;;;;;5090814;28;20724;-94
2021/01/18 13:14:22;;;;;;;6.90;3.93;;;6.10;99.90;;;;;;5105815;28;20634;-95
2021/01/18 13:16:53;;;;;;;4.67;3.60;;;5.90;99.90;;;;;;5112025;28;20656;-95
2021/01/18 13:19:20;;;;;;;7.20;4.23;;;5.80;99.90;;;;;;5096300;28;20636;-94